This is the latest recevied weather packets stored in our database for station/object ON8GE-13. If no packets are shown the sender has not sent any weather packets the latest 10 day(s).
| Time | Temp. | Humidity | Pressure | Rain* | Wind** | Luminosity | Snow |
|---|---|---|---|---|---|---|---|
| 1777647664 | 23.89° C | 21% | 1021.7 hPa | 0 mm | - | 516 W/m² | - |
| 1777643457 | 23.89° C | 23% | 1022.2 hPa | 0 mm | - | 648 W/m² | - |
| 1777639260 | 22.78° C | 25% | 1022.8 hPa | 0 mm | - | 734 W/m² | - |
| 1777638057 | 22.22° C | 25% | 1022.9 hPa | 0 mm | - | 748 W/m² | - |
| 1777636859 | 22.22° C | 25% | 1023.1 hPa | 0 mm | - | 754 W/m² | - |
| 1777632057 | 20.56° C | 28% | 1023.8 hPa | 0 mm | - | 684 W/m² | - |
| 1777630258 | 20° C | 30% | 1024.1 hPa | 0 mm | - | 710 W/m² | - |
| 1777628459 | 18.89° C | 32% | 1024.2 hPa | 0 mm | - | 674 W/m² | - |
| 1777625459 | 17.22° C | 34% | 1024.5 hPa | 0 mm | - | 590 W/m² | - |
| 1777624260 | 17.22° C | 34% | 1024.5 hPa | 0 mm | - | 548 W/m² | - |
| 1777623059 | 16.11° C | 34% | 1024.4 hPa | 0 mm | - | 504 W/m² | - |
| 1777621258 | 15° C | 35% | 1024.5 hPa | 0 mm | - | 432 W/m² | - |
| 1777618854 | 13.33° C | 38% | 1024.6 hPa | 0 mm | - | 328 W/m² | - |
| 1777615855 | 10.56° C | 42% | 1024.7 hPa | 0 mm | - | 62 W/m² | - |
| 1777613454 | 9.44° C | 44% | 1024.7 hPa | 0 mm | - | 22 W/m² | - |
| 1777606253 | 7.22° C | 49% | 1024.8 hPa | 0 mm | - | 0 W/m² | - |
| 1777605655 | 7.22° C | 49% | 1024.8 hPa | 0 mm | - | 0 W/m² | - |
| 1777605055 | 6.67° C | 51% | 1024.9 hPa | 0 mm | - | 0 W/m² | - |
| 1777600854 | 7.78° C | 49% | 1025 hPa | 0 mm | - | 0 W/m² | - |
| 1777596654 | 8.33° C | 46% | 1025.1 hPa | 0 mm | - | 0 W/m² | - |
| 1777595453 | 7.78° C | 47% | 1025.2 hPa | 0 mm | - | 0 W/m² | - |
| 1777590660 | 9.44° C | 42% | 1025.3 hPa | 0 mm | - | 0 W/m² | - |
| 1777588261 | 10.56° C | 38% | 1025.2 hPa | 0 mm | - | 0 W/m² | - |
| 1777586464 | 11.11° C | 37% | 1025.3 hPa | 0 mm | - | 0 W/m² | - |
| 1777585269 | 11.11° C | 36% | 1025.2 hPa | 0 mm | - | 0 W/m² | - |
* Rain latest hour (hover to see other rain measurements)
** Current wind speed in m/s (hover to see current wind gust speed)